sensor_id;sensor_type;location;lat;lon;timestamp;temperature;humidity
52203;DHT22;38173;52.850;6.970;2023-03-04T00:01:37;5.00;99.90
52203;DHT22;38173;52.850;6.970;2023-03-04T00:04:02;5.00;99.90
52203;DHT22;38173;52.850;6.970;2023-03-04T00:06:28;5.00;99.90
52203;DHT22;38173;52.850;6.970;2023-03-04T00:08:53;5.10;99.90
52203;DHT22;38173;52.850;6.970;2023-03-04T00:11:19;5.00;99.90
52203;DHT22;38173;52.850;6.970;2023-03-04T00:13:45;5.00;99.90
52203;DHT22;38173;52.850;6.970;2023-03-04T00:16:10;5.00;99.90
52203;DHT22;38173;52.850;6.970;2023-03-04T00:18:36;5.10;99.90
52203;DHT22;38173;52.850;6.970;2023-03-04T00:21:02;5.00;99.90
52203;DHT22;38173;52.850;6.970;2023-03-04T00:23:27;5.00;99.90
52203;DHT22;38173;52.850;6.970;2023-03-04T00:25:53;5.00;99.90
52203;DHT22;38173;52.850;6.970;2023-03-04T00:28:19;5.00;99.90
52203;DHT22;38173;52.850;6.970;2023-03-04T00:30:45;5.00;99.90
52203;DHT22;38173;52.850;6.970;2023-03-04T00:33:11;5.00;99.90
52203;DHT22;38173;52.850;6.970;2023-03-04T00:35:37;5.00;99.90
52203;DHT22;38173;52.850;6.970;2023-03-04T00:38:03;5.00;99.90
52203;DHT22;38173;52.850;6.970;2023-03-04T00:40:28;5.00;99.90
52203;DHT22;38173;52.850;6.970;2023-03-04T00:42:54;4.90;99.90
52203;DHT22;38173;52.850;6.970;2023-03-04T00:45:20;4.90;99.90
52203;DHT22;38173;52.850;6.970;2023-03-04T00:47:45;4.90;99.90
52203;DHT22;38173;52.850;6.970;2023-03-04T00:50:11;4.90;99.90
52203;DHT22;38173;52.850;6.970;2023-03-04T00:52:36;4.90;99.90
52203;DHT22;38173;52.850;6.970;2023-03-04T00:55:02;4.90;99.90
52203;DHT22;38173;52.850;6.970;2023-03-04T00:57:28;4.90;99.90
52203;DHT22;38173;52.850;6.970;2023-03-04T00:59:54;4.90;99.90
52203;DHT22;38173;52.850;6.970;2023-03-04T01:02:19;4.90;99.90
52203;DHT22;38173;52.850;6.970;2023-03-04T01:04:45;4.90;99.90
52203;DHT22;38173;52.850;6.970;2023-03-04T01:07:11;4.90;99.90
52203;DHT22;38173;52.850;6.970;2023-03-04T01:09:36;4.90;99.90
52203;DHT22;38173;52.850;6.970;2023-03-04T01:12:02;4.90;99.90
52203;DHT22;38173;52.850;6.970;2023-03-04T01:14:27;4.90;99.90
52203;DHT22;38173;52.850;6.970;2023-03-04T01:16:55;4.90;99.90
52203;DHT22;38173;52.850;6.970;2023-03-04T01:19:20;4.90;99.90
52203;DHT22;38173;52.850;6.970;2023-03-04T01:21:46;4.90;99.90
52203;DHT22;38173;52.850;6.970;2023-03-04T01:24:12;4.90;99.90
52203;DHT22;38173;52.850;6.970;2023-03-04T01:26:37;4.90;99.90
52203;DHT22;38173;52.850;6.970;2023-03-04T01:29:03;4.90;99.90
52203;DHT22;38173;52.850;6.970;2023-03-04T01:31:29;4.90;99.90
52203;DHT22;38173;52.850;6.970;2023-03-04T01:33:54;4.80;99.90
52203;DHT22;38173;52.850;6.970;2023-03-04T01:36:20;4.90;99.90
52203;DHT22;38173;52.850;6.970;2023-03-04T01:38:46;4.80;99.90
52203;DHT22;38173;52.850;6.970;2023-03-04T01:41:11;4.80;99.90
52203;DHT22;38173;52.850;6.970;2023-03-04T01:43:38;4.90;99.90
52203;DHT22;38173;52.850;6.970;2023-03-04T01:46:03;4.90;99.90
52203;DHT22;38173;52.850;6.970;2023-03-04T01:48:31;4.80;99.90
52203;DHT22;38173;52.850;6.970;2023-03-04T01:50:58;4.80;99.90
52203;DHT22;38173;52.850;6.970;2023-03-04T01:53:27;4.80;99.90
52203;DHT22;38173;52.850;6.970;2023-03-04T01:55:54;4.80;99.90
52203;DHT22;38173;52.850;6.970;2023-03-04T01:58:20;4.80;99.90
52203;DHT22;38173;52.850;6.970;2023-03-04T02:00:47;4.80;99.90
52203;DHT22;38173;52.850;6.970;2023-03-04T02:03:15;4.80;99.90
52203;DHT22;38173;52.850;6.970;2023-03-04T02:05:45;4.80;99.90
52203;DHT22;38173;52.850;6.970;2023-03-04T02:08:11;4.80;99.90
52203;DHT22;38173;52.850;6.970;2023-03-04T02:10:38;4.80;99.90
52203;DHT22;38173;52.850;6.970;2023-03-04T02:13:04;4.90;99.90
52203;DHT22;38173;52.850;6.970;2023-03-04T02:15:30;4.80;99.90
52203;DHT22;38173;52.850;6.970;2023-03-04T02:17:56;4.80;99.90
52203;DHT22;38173;52.850;6.970;2023-03-04T02:22:53;4.80;99.90
52203;DHT22;38173;52.850;6.970;2023-03-04T02:25:23;4.90;99.90
52203;DHT22;38173;52.850;6.970;2023-03-04T02:27:57;4.90;99.90
52203;DHT22;38173;52.850;6.970;2023-03-04T02:30:23;4.80;99.90
52203;DHT22;38173;52.850;6.970;2023-03-04T02:32:50;4.90;99.90
52203;DHT22;38173;52.850;6.970;2023-03-04T02:35:16;4.90;99.90
52203;DHT22;38173;52.850;6.970;2023-03-04T02:37:42;4.80;99.90
52203;DHT22;38173;52.850;6.970;2023-03-04T02:40:12;4.80;99.90
52203;DHT22;38173;52.850;6.970;2023-03-04T02:42:38;4.80;99.90
52203;DHT22;38173;52.850;6.970;2023-03-04T02:45:04;4.80;99.90
52203;DHT22;38173;52.850;6.970;2023-03-04T02:47:30;4.80;99.90
52203;DHT22;38173;52.850;6.970;2023-03-04T02:49:55;4.80;99.90
52203;DHT22;38173;52.850;6.970;2023-03-04T02:52:23;4.80;99.90
52203;DHT22;38173;52.850;6.970;2023-03-04T02:54:48;4.80;99.90
52203;DHT22;38173;52.850;6.970;2023-03-04T02:57:14;4.80;99.90
52203;DHT22;38173;52.850;6.970;2023-03-04T02:59:40;4.80;99.90
52203;DHT22;38173;52.850;6.970;2023-03-04T03:02:06;4.80;99.90
52203;DHT22;38173;52.850;6.970;2023-03-04T03:04:32;4.70;99.90
52203;DHT22;38173;52.850;6.970;2023-03-04T03:06:58;4.80;99.90
52203;DHT22;38173;52.850;6.970;2023-03-04T03:09:24;4.80;99.90
52203;DHT22;38173;52.850;6.970;2023-03-04T03:11:50;4.70;99.90
52203;DHT22;38173;52.850;6.970;2023-03-04T03:14:15;4.70;99.90
52203;DHT22;38173;52.850;6.970;2023-03-04T03:16:41;4.70;99.90
52203;DHT22;38173;52.850;6.970;2023-03-04T03:19:07;4.70;99.90
52203;DHT22;38173;52.850;6.970;2023-03-04T03:21:33;4.70;99.90
52203;DHT22;38173;52.850;6.970;2023-03-04T03:23:59;4.70;99.90
52203;DHT22;38173;52.850;6.970;2023-03-04T03:26:24;4.70;99.90
52203;DHT22;38173;52.850;6.970;2023-03-04T03:28:53;4.60;99.90
52203;DHT22;38173;52.850;6.970;2023-03-04T03:31:19;4.70;99.90
52203;DHT22;38173;52.850;6.970;2023-03-04T03:33:44;4.60;99.90
52203;DHT22;38173;52.850;6.970;2023-03-04T03:36:10;4.60;99.90
52203;DHT22;38173;52.850;6.970;2023-03-04T03:38:36;4.60;99.90
52203;DHT22;38173;52.850;6.970;2023-03-04T03:41:02;4.70;99.90
52203;DHT22;38173;52.850;6.970;2023-03-04T03:43:27;4.60;99.90
52203;DHT22;38173;52.850;6.970;2023-03-04T03:45:53;4.60;99.90
52203;DHT22;38173;52.850;6.970;2023-03-04T03:48:19;4.70;99.90
52203;DHT22;38173;52.850;6.970;2023-03-04T03:50:44;4.70;99.90
52203;DHT22;38173;52.850;6.970;2023-03-04T03:53:10;4.60;99.90
52203;DHT22;38173;52.850;6.970;2023-03-04T03:55:35;4.60;99.90
52203;DHT22;38173;52.850;6.970;2023-03-04T03:58:01;4.70;99.90
52203;DHT22;38173;52.850;6.970;2023-03-04T04:00:27;4.70;99.90
52203;DHT22;38173;52.850;6.970;2023-03-04T04:02:53;4.60;99.90
52203;DHT22;38173;52.850;6.970;2023-03-04T04:05:19;4.70;99.90
52203;DHT22;38173;52.850;6.970;2023-03-04T04:07:45;4.60;99.90
52203;DHT22;38173;52.850;6.970;2023-03-04T04:10:11;4.60;99.90
52203;DHT22;38173;52.850;6.970;2023-03-04T04:12:36;4.60;99.90
52203;DHT22;38173;52.850;6.970;2023-03-04T04:15:02;4.70;99.90
52203;DHT22;38173;52.850;6.970;2023-03-04T04:17:28;4.70;99.90
52203;DHT22;38173;52.850;6.970;2023-03-04T04:19:53;4.70;99.90
52203;DHT22;38173;52.850;6.970;2023-03-04T04:22:19;4.60;99.90
52203;DHT22;38173;52.850;6.970;2023-03-04T04:24:45;4.60;99.90
52203;DHT22;38173;52.850;6.970;2023-03-04T04:27:11;4.60;99.90
52203;DHT22;38173;52.850;6.970;2023-03-04T04:29:37;4.60;99.90
52203;DHT22;38173;52.850;6.970;2023-03-04T04:32:02;4.60;99.90
52203;DHT22;38173;52.850;6.970;2023-03-04T04:34:28;4.60;99.90
52203;DHT22;38173;52.850;6.970;2023-03-04T04:36:54;4.60;99.90
52203;DHT22;38173;52.850;6.970;2023-03-04T04:39:19;4.60;99.90
52203;DHT22;38173;52.850;6.970;2023-03-04T04:41:47;4.60;99.90
52203;DHT22;38173;52.850;6.970;2023-03-04T04:44:13;4.60;99.90
52203;DHT22;38173;52.850;6.970;2023-03-04T04:46:39;4.60;99.90
52203;DHT22;38173;52.850;6.970;2023-03-04T04:49:05;4.60;99.90
52203;DHT22;38173;52.850;6.970;2023-03-04T04:51:31;4.60;99.90
52203;DHT22;38173;52.850;6.970;2023-03-04T04:53:57;4.60;99.90
52203;DHT22;38173;52.850;6.970;2023-03-04T04:56:23;4.60;99.90
52203;DHT22;38173;52.850;6.970;2023-03-04T04:58:53;4.70;99.90
52203;DHT22;38173;52.850;6.970;2023-03-04T05:01:19;4.70;99.90
52203;DHT22;38173;52.850;6.970;2023-03-04T05:03:45;4.70;99.90
52203;DHT22;38173;52.850;6.970;2023-03-04T05:06:13;4.70;99.90
52203;DHT22;38173;52.850;6.970;2023-03-04T05:08:38;4.70;99.90
52203;DHT22;38173;52.850;6.970;2023-03-04T05:11:04;4.70;99.90
52203;DHT22;38173;52.850;6.970;2023-03-04T05:13:30;4.70;99.90
52203;DHT22;38173;52.850;6.970;2023-03-04T05:15:56;4.70;99.90
52203;DHT22;38173;52.850;6.970;2023-03-04T05:18:23;4.70;99.90
52203;DHT22;38173;52.850;6.970;2023-03-04T05:20:59;4.60;99.90
52203;DHT22;38173;52.850;6.970;2023-03-04T05:23:29;4.70;99.90
52203;DHT22;38173;52.850;6.970;2023-03-04T05:25:55;4.60;99.90
52203;DHT22;38173;52.850;6.970;2023-03-04T05:28:21;4.60;99.90
52203;DHT22;38173;52.850;6.970;2023-03-04T05:30:47;4.60;99.90
52203;DHT22;38173;52.850;6.970;2023-03-04T05:33:13;4.60;99.90
52203;DHT22;38173;52.850;6.970;2023-03-04T05:35:39;4.60;99.90
52203;DHT22;38173;52.850;6.970;2023-03-04T05:38:06;4.50;99.90
52203;DHT22;38173;52.850;6.970;2023-03-04T05:40:32;4.50;99.90
52203;DHT22;38173;52.850;6.970;2023-03-04T05:42:58;4.50;99.90
52203;DHT22;38173;52.850;6.970;2023-03-04T05:45:24;4.50;99.90
52203;DHT22;38173;52.850;6.970;2023-03-04T05:47:50;4.50;99.90
52203;DHT22;38173;52.850;6.970;2023-03-04T05:50:15;4.50;99.90
52203;DHT22;38173;52.850;6.970;2023-03-04T05:52:41;4.40;99.90
52203;DHT22;38173;52.850;6.970;2023-03-04T05:55:07;4.40;99.90
52203;DHT22;38173;52.850;6.970;2023-03-04T05:57:33;4.40;99.90
52203;DHT22;38173;52.850;6.970;2023-03-04T05:59:59;4.40;99.90
52203;DHT22;38173;52.850;6.970;2023-03-04T06:02:25;4.40;99.90
52203;DHT22;38173;52.850;6.970;2023-03-04T06:04:50;4.40;99.90
52203;DHT22;38173;52.850;6.970;2023-03-04T06:07:16;4.40;99.90
52203;DHT22;38173;52.850;6.970;2023-03-04T06:09:45;4.30;99.90
52203;DHT22;38173;52.850;6.970;2023-03-04T06:12:15;4.30;99.90
52203;DHT22;38173;52.850;6.970;2023-03-04T06:14:41;4.30;99.90
52203;DHT22;38173;52.850;6.970;2023-03-04T06:17:10;4.30;99.90
52203;DHT22;38173;52.850;6.970;2023-03-04T06:19:36;4.30;99.90
52203;DHT22;38173;52.850;6.970;2023-03-04T06:22:06;4.30;99.90
52203;DHT22;38173;52.850;6.970;2023-03-04T06:24:33;4.30;99.90
52203;DHT22;38173;52.850;6.970;2023-03-04T06:26:59;4.30;99.90
52203;DHT22;38173;52.850;6.970;2023-03-04T06:29:24;4.30;99.90
52203;DHT22;38173;52.850;6.970;2023-03-04T06:31:50;4.30;99.90
52203;DHT22;38173;52.850;6.970;2023-03-04T06:34:16;4.30;99.90
52203;DHT22;38173;52.850;6.970;2023-03-04T06:36:42;4.30;99.90
52203;DHT22;38173;52.850;6.970;2023-03-04T06:39:07;4.30;99.90
52203;DHT22;38173;52.850;6.970;2023-03-04T06:41:33;4.30;99.90
52203;DHT22;38173;52.850;6.970;2023-03-04T06:43:59;4.30;99.90
52203;DHT22;38173;52.850;6.970;2023-03-04T06:46:25;4.30;99.90
52203;DHT22;38173;52.850;6.970;2023-03-04T06:48:51;4.30;99.90
52203;DHT22;38173;52.850;6.970;2023-03-04T06:51:20;4.30;99.90
52203;DHT22;38173;52.850;6.970;2023-03-04T06:53:46;4.30;99.90
52203;DHT22;38173;52.850;6.970;2023-03-04T06:56:13;4.30;99.90
52203;DHT22;38173;52.850;6.970;2023-03-04T06:58:42;4.30;99.90
52203;DHT22;38173;52.850;6.970;2023-03-04T07:01:11;4.40;99.90
52203;DHT22;38173;52.850;6.970;2023-03-04T07:03:38;4.40;99.90
52203;DHT22;38173;52.850;6.970;2023-03-04T07:06:04;4.50;99.90
52203;DHT22;38173;52.850;6.970;2023-03-04T07:08:30;4.50;99.90
52203;DHT22;38173;52.850;6.970;2023-03-04T07:10:55;4.50;99.90
52203;DHT22;38173;52.850;6.970;2023-03-04T07:13:21;4.50;99.90
52203;DHT22;38173;52.850;6.970;2023-03-04T07:15:46;4.60;99.90
52203;DHT22;38173;52.850;6.970;2023-03-04T07:18:12;4.60;99.90
52203;DHT22;38173;52.850;6.970;2023-03-04T07:20:38;4.60;99.90
52203;DHT22;38173;52.850;6.970;2023-03-04T07:23:03;4.60;99.90
52203;DHT22;38173;52.850;6.970;2023-03-04T07:25:29;4.70;99.90
52203;DHT22;38173;52.850;6.970;2023-03-04T07:27:55;4.70;99.90
52203;DHT22;38173;52.850;6.970;2023-03-04T07:30:20;4.80;99.90
52203;DHT22;38173;52.850;6.970;2023-03-04T07:32:46;4.80;99.90
52203;DHT22;38173;52.850;6.970;2023-03-04T07:35:12;4.80;99.90
52203;DHT22;38173;52.850;6.970;2023-03-04T07:37:37;4.90;99.90
52203;DHT22;38173;52.850;6.970;2023-03-04T07:40:05;5.00;99.90
52203;DHT22;38173;52.850;6.970;2023-03-04T07:42:32;5.00;99.90
52203;DHT22;38173;52.850;6.970;2023-03-04T07:44:58;5.10;99.90
52203;DHT22;38173;52.850;6.970;2023-03-04T07:47:26;5.20;99.90
52203;DHT22;38173;52.850;6.970;2023-03-04T07:49:52;5.20;99.90
52203;DHT22;38173;52.850;6.970;2023-03-04T07:52:18;5.30;99.90
52203;DHT22;38173;52.850;6.970;2023-03-04T07:54:43;5.30;99.90
52203;DHT22;38173;52.850;6.970;2023-03-04T07:57:09;5.40;99.90
52203;DHT22;38173;52.850;6.970;2023-03-04T07:59:34;5.40;99.90
52203;DHT22;38173;52.850;6.970;2023-03-04T08:02:00;5.40;99.90
52203;DHT22;38173;52.850;6.970;2023-03-04T08:04:27;5.40;99.90
52203;DHT22;38173;52.850;6.970;2023-03-04T08:06:53;5.40;99.90
52203;DHT22;38173;52.850;6.970;2023-03-04T08:09:18;5.40;99.90
52203;DHT22;38173;52.850;6.970;2023-03-04T08:11:44;5.40;99.90
52203;DHT22;38173;52.850;6.970;2023-03-04T08:14:10;5.40;99.90
52203;DHT22;38173;52.850;6.970;2023-03-04T08:16:36;5.40;99.90
52203;DHT22;38173;52.850;6.970;2023-03-04T08:19:02;5.30;99.90
52203;DHT22;38173;52.850;6.970;2023-03-04T08:21:28;5.40;99.90
52203;DHT22;38173;52.850;6.970;2023-03-04T08:23:56;5.40;99.90
52203;DHT22;38173;52.850;6.970;2023-03-04T08:26:26;5.40;99.90
52203;DHT22;38173;52.850;6.970;2023-03-04T08:28:53;5.50;99.90
52203;DHT22;38173;52.850;6.970;2023-03-04T08:31:19;5.50;99.90
52203;DHT22;38173;52.850;6.970;2023-03-04T08:33:45;5.60;99.90
52203;DHT22;38173;52.850;6.970;2023-03-04T08:36:11;5.60;99.90
52203;DHT22;38173;52.850;6.970;2023-03-04T08:38:37;5.60;99.90
52203;DHT22;38173;52.850;6.970;2023-03-04T08:41:03;5.70;99.90
52203;DHT22;38173;52.850;6.970;2023-03-04T08:43:29;5.70;99.90
52203;DHT22;38173;52.850;6.970;2023-03-04T08:45:55;5.70;99.90
52203;DHT22;38173;52.850;6.970;2023-03-04T08:48:21;5.80;99.90
52203;DHT22;38173;52.850;6.970;2023-03-04T08:50:48;5.80;99.90
52203;DHT22;38173;52.850;6.970;2023-03-04T08:53:14;5.90;99.90
52203;DHT22;38173;52.850;6.970;2023-03-04T08:55:40;5.90;99.90
52203;DHT22;38173;52.850;6.970;2023-03-04T08:58:07;5.90;99.90
52203;DHT22;38173;52.850;6.970;2023-03-04T09:00:33;5.90;99.90
52203;DHT22;38173;52.850;6.970;2023-03-04T09:02:59;6.00;99.90
52203;DHT22;38173;52.850;6.970;2023-03-04T09:05:25;6.00;99.90
52203;DHT22;38173;52.850;6.970;2023-03-04T09:07:51;6.10;99.90
52203;DHT22;38173;52.850;6.970;2023-03-04T09:10:16;6.10;99.90
52203;DHT22;38173;52.850;6.970;2023-03-04T09:12:42;6.00;99.90
52203;DHT22;38173;52.850;6.970;2023-03-04T09:15:08;6.00;99.90
52203;DHT22;38173;52.850;6.970;2023-03-04T09:17:34;6.10;99.90
52203;DHT22;38173;52.850;6.970;2023-03-04T09:20:00;6.10;99.90
52203;DHT22;38173;52.850;6.970;2023-03-04T09:22:26;6.20;99.90
52203;DHT22;38173;52.850;6.970;2023-03-04T09:24:51;6.30;99.90
52203;DHT22;38173;52.850;6.970;2023-03-04T09:27:17;6.40;99.90
52203;DHT22;38173;52.850;6.970;2023-03-04T09:29:45;6.50;99.90
52203;DHT22;38173;52.850;6.970;2023-03-04T09:32:11;6.70;99.90
52203;DHT22;38173;52.850;6.970;2023-03-04T09:34:37;6.70;99.90
52203;DHT22;38173;52.850;6.970;2023-03-04T09:37:03;6.70;99.90
52203;DHT22;38173;52.850;6.970;2023-03-04T09:39:29;6.80;99.90
52203;DHT22;38173;52.850;6.970;2023-03-04T09:41:55;6.90;99.90
52203;DHT22;38173;52.850;6.970;2023-03-04T09:44:23;6.90;99.90
52203;DHT22;38173;52.850;6.970;2023-03-04T09:46:50;6.90;99.90
52203;DHT22;38173;52.850;6.970;2023-03-04T09:49:16;7.00;99.90
52203;DHT22;38173;52.850;6.970;2023-03-04T09:51:44;7.00;99.90
52203;DHT22;38173;52.850;6.970;2023-03-04T09:56:48;6.90;99.90
52203;DHT22;38173;52.850;6.970;2023-03-04T09:59:24;6.90;99.90
52203;DHT22;38173;52.850;6.970;2023-03-04T10:01:54;6.90;99.90
52203;DHT22;38173;52.850;6.970;2023-03-04T10:06:54;6.80;99.90
52203;DHT22;38173;52.850;6.970;2023-03-04T10:09:41;6.70;99.90
52203;DHT22;38173;52.850;6.970;2023-03-04T10:12:15;6.70;99.90
52203;DHT22;38173;52.850;6.970;2023-03-04T10:14:53;6.70;99.90
52203;DHT22;38173;52.850;6.970;2023-03-04T10:17:35;6.70;99.90
52203;DHT22;38173;52.850;6.970;2023-03-04T10:22:35;6.90;99.90
52203;DHT22;38173;52.850;6.970;2023-03-04T10:27:43;6.60;99.90
52203;DHT22;38173;52.850;6.970;2023-03-04T10:30:18;6.50;99.90
52203;DHT22;38173;52.850;6.970;2023-03-04T10:32:45;6.40;99.90
52203;DHT22;38173;52.850;6.970;2023-03-04T10:35:12;6.40;99.90
52203;DHT22;38173;52.850;6.970;2023-03-04T10:37:48;6.40;99.90
52203;DHT22;38173;52.850;6.970;2023-03-04T10:40:22;6.40;99.90
52203;DHT22;38173;52.850;6.970;2023-03-04T10:42:49;6.50;99.90
52203;DHT22;38173;52.850;6.970;2023-03-04T10:45:22;6.80;99.90
52203;DHT22;38173;52.850;6.970;2023-03-04T10:47:52;7.00;99.90
52203;DHT22;38173;52.850;6.970;2023-03-04T10:50:22;7.20;99.90
52203;DHT22;38173;52.850;6.970;2023-03-04T10:52:52;7.30;99.90
52203;DHT22;38173;52.850;6.970;2023-03-04T10:55:30;7.80;99.90
52203;DHT22;38173;52.850;6.970;2023-03-04T10:58:06;8.00;99.90
52203;DHT22;38173;52.850;6.970;2023-03-04T11:00:37;8.00;99.90
52203;DHT22;38173;52.850;6.970;2023-03-04T11:03:23;7.70;99.90
52203;DHT22;38173;52.850;6.970;2023-03-04T11:05:49;7.30;99.90
52203;DHT22;38173;52.850;6.970;2023-03-04T11:08:22;6.80;99.90
52203;DHT22;38173;52.850;6.970;2023-03-04T11:10:48;6.40;99.90
52203;DHT22;38173;52.850;6.970;2023-03-04T11:18:19;6.10;99.90
52203;DHT22;38173;52.850;6.970;2023-03-04T11:20:47;6.20;99.90
52203;DHT22;38173;52.850;6.970;2023-03-04T11:25:54;6.50;99.90
52203;DHT22;38173;52.850;6.970;2023-03-04T11:28:21;6.60;99.90
52203;DHT22;38173;52.850;6.970;2023-03-04T11:34:00;6.80;99.90
52203;DHT22;38173;52.850;6.970;2023-03-04T11:36:32;7.10;99.90
52203;DHT22;38173;52.850;6.970;2023-03-04T11:38:58;7.50;99.90
52203;DHT22;38173;52.850;6.970;2023-03-04T11:41:28;7.80;99.90
52203;DHT22;38173;52.850;6.970;2023-03-04T11:43:56;8.00;99.90
52203;DHT22;38173;52.850;6.970;2023-03-04T11:49:00;8.20;99.90
52203;DHT22;38173;52.850;6.970;2023-03-04T11:56:57;8.10;99.90
52203;DHT22;38173;52.850;6.970;2023-03-04T12:04:40;7.70;99.90
52203;DHT22;38173;52.850;6.970;2023-03-04T12:09:41;7.60;99.90
52203;DHT22;38173;52.850;6.970;2023-03-04T12:12:18;7.80;99.90
52203;DHT22;38173;52.850;6.970;2023-03-04T12:15:01;8.00;99.90
52203;DHT22;38173;52.850;6.970;2023-03-04T12:17:42;8.30;99.90
52203;DHT22;38173;52.850;6.970;2023-03-04T12:23:09;8.30;99.90
52203;DHT22;38173;52.850;6.970;2023-03-04T12:25:42;8.30;99.90
52203;DHT22;38173;52.850;6.970;2023-03-04T12:28:24;8.30;99.90
52203;DHT22;38173;52.850;6.970;2023-03-04T12:31:06;8.40;99.90
52203;DHT22;38173;52.850;6.970;2023-03-04T12:33:58;8.50;99.90
52203;DHT22;38173;52.850;6.970;2023-03-04T12:38:59;8.40;99.90
52203;DHT22;38173;52.850;6.970;2023-03-04T12:41:31;8.30;99.90
52203;DHT22;38173;52.850;6.970;2023-03-04T12:49:14;7.90;99.90
52203;DHT22;38173;52.850;6.970;2023-03-04T12:57:05;7.40;99.90
52203;DHT22;38173;52.850;6.970;2023-03-04T12:59:39;7.40;99.90
52203;DHT22;38173;52.850;6.970;2023-03-04T13:05:11;7.10;99.90
52203;DHT22;38173;52.850;6.970;2023-03-04T13:10:15;7.40;99.90
52203;DHT22;38173;52.850;6.970;2023-03-04T13:12:53;7.50;99.90
52203;DHT22;38173;52.850;6.970;2023-03-04T13:17:50;7.80;99.90
52203;DHT22;38173;52.850;6.970;2023-03-04T13:20:21;7.90;99.90
52203;DHT22;38173;52.850;6.970;2023-03-04T13:32:57;7.60;99.90
52203;DHT22;38173;52.850;6.970;2023-03-04T13:43:45;8.20;99.90
52203;DHT22;38173;52.850;6.970;2023-03-04T13:46:37;8.40;99.90
52203;DHT22;38173;52.850;6.970;2023-03-04T13:49:02;8.60;99.90
52203;DHT22;38173;52.850;6.970;2023-03-04T13:51:33;8.80;99.90
52203;DHT22;38173;52.850;6.970;2023-03-04T13:54:13;8.60;99.90
52203;DHT22;38173;52.850;6.970;2023-03-04T13:56:43;8.10;99.90
52203;DHT22;38173;52.850;6.970;2023-03-04T14:04:55;7.00;99.90
52203;DHT22;38173;52.850;6.970;2023-03-04T14:07:15;6.70;99.90
52203;DHT22;38173;52.850;6.970;2023-03-04T14:09:41;6.50;99.90
52203;DHT22;38173;52.850;6.970;2023-03-04T14:12:17;6.50;99.90
52203;DHT22;38173;52.850;6.970;2023-03-04T14:14:48;6.60;99.90
52203;DHT22;38173;52.850;6.970;2023-03-04T14:17:22;6.70;99.90
52203;DHT22;38173;52.850;6.970;2023-03-04T14:19:49;6.90;99.90
52203;DHT22;38173;52.850;6.970;2023-03-04T14:24:57;7.50;99.90
52203;DHT22;38173;52.850;6.970;2023-03-04T14:27:23;7.60;99.90
52203;DHT22;38173;52.850;6.970;2023-03-04T14:29:59;7.60;99.90
52203;DHT22;38173;52.850;6.970;2023-03-04T14:32:25;7.50;99.90
52203;DHT22;38173;52.850;6.970;2023-03-04T14:34:53;7.30;99.90
52203;DHT22;38173;52.850;6.970;2023-03-04T14:37:21;6.90;99.90
52203;DHT22;38173;52.850;6.970;2023-03-04T14:39:48;6.60;99.90
52203;DHT22;38173;52.850;6.970;2023-03-04T14:42:14;6.50;99.90
52203;DHT22;38173;52.850;6.970;2023-03-04T14:44:42;6.40;99.90
52203;DHT22;38173;52.850;6.970;2023-03-04T14:47:13;6.60;99.90
52203;DHT22;38173;52.850;6.970;2023-03-04T14:49:41;6.80;99.90
52203;DHT22;38173;52.850;6.970;2023-03-04T14:52:25;6.70;99.90
52203;DHT22;38173;52.850;6.970;2023-03-04T14:54:58;6.70;99.90
52203;DHT22;38173;52.850;6.970;2023-03-04T14:57:25;6.60;99.90
52203;DHT22;38173;52.850;6.970;2023-03-04T14:59:52;6.50;99.90
52203;DHT22;38173;52.850;6.970;2023-03-04T15:05:17;6.30;99.90
52203;DHT22;38173;52.850;6.970;2023-03-04T15:07:41;6.30;99.90
52203;DHT22;38173;52.850;6.970;2023-03-04T15:10:07;6.20;99.90
52203;DHT22;38173;52.850;6.970;2023-03-04T15:12:38;6.20;99.90
52203;DHT22;38173;52.850;6.970;2023-03-04T15:15:28;6.20;99.90
52203;DHT22;38173;52.850;6.970;2023-03-04T15:17:56;6.10;99.90
52203;DHT22;38173;52.850;6.970;2023-03-04T15:20:26;6.00;99.90
52203;DHT22;38173;52.850;6.970;2023-03-04T15:25:18;6.00;99.90
52203;DHT22;38173;52.850;6.970;2023-03-04T15:27:44;6.00;99.90
52203;DHT22;38173;52.850;6.970;2023-03-04T15:30:14;5.90;99.90
52203;DHT22;38173;52.850;6.970;2023-03-04T15:32:41;5.90;99.90
52203;DHT22;38173;52.850;6.970;2023-03-04T15:35:13;6.00;99.90
52203;DHT22;38173;52.850;6.970;2023-03-04T15:37:39;6.00;99.90
52203;DHT22;38173;52.850;6.970;2023-03-04T15:40:12;6.00;99.90
52203;DHT22;38173;52.850;6.970;2023-03-04T15:42:38;6.00;99.90
52203;DHT22;38173;52.850;6.970;2023-03-04T15:45:31;5.90;99.90
52203;DHT22;38173;52.850;6.970;2023-03-04T15:47:51;5.90;99.90
52203;DHT22;38173;52.850;6.970;2023-03-04T15:50:17;5.70;99.90
52203;DHT22;38173;52.850;6.970;2023-03-04T15:52:43;5.60;99.90
52203;DHT22;38173;52.850;6.970;2023-03-04T15:55:13;5.50;99.90
52203;DHT22;38173;52.850;6.970;2023-03-04T15:57:39;5.50;99.90
52203;DHT22;38173;52.850;6.970;2023-03-04T16:00:05;5.50;99.90
52203;DHT22;38173;52.850;6.970;2023-03-04T16:02:31;5.50;99.90
52203;DHT22;38173;52.850;6.970;2023-03-04T16:04:56;5.50;99.90
52203;DHT22;38173;52.850;6.970;2023-03-04T16:07:23;5.50;99.90
52203;DHT22;38173;52.850;6.970;2023-03-04T16:09:54;5.50;99.90
52203;DHT22;38173;52.850;6.970;2023-03-04T16:12:20;5.50;99.90
52203;DHT22;38173;52.850;6.970;2023-03-04T16:14:45;5.50;99.90
52203;DHT22;38173;52.850;6.970;2023-03-04T16:17:12;5.50;99.90
52203;DHT22;38173;52.850;6.970;2023-03-04T16:19:40;5.50;99.90
52203;DHT22;38173;52.850;6.970;2023-03-04T16:22:08;5.50;99.90
52203;DHT22;38173;52.850;6.970;2023-03-04T16:24:34;5.40;99.90
52203;DHT22;38173;52.850;6.970;2023-03-04T16:27:00;5.30;99.90
52203;DHT22;38173;52.850;6.970;2023-03-04T16:29:25;5.20;99.90
52203;DHT22;38173;52.850;6.970;2023-03-04T16:31:53;5.10;99.90
52203;DHT22;38173;52.850;6.970;2023-03-04T16:34:19;5.00;99.90
52203;DHT22;38173;52.850;6.970;2023-03-04T16:36:45;4.90;99.90
52203;DHT22;38173;52.850;6.970;2023-03-04T16:39:17;4.90;99.90
52203;DHT22;38173;52.850;6.970;2023-03-04T16:41:44;4.80;99.90
52203;DHT22;38173;52.850;6.970;2023-03-04T16:44:09;4.80;99.90
52203;DHT22;38173;52.850;6.970;2023-03-04T16:46:38;4.80;99.90
52203;DHT22;38173;52.850;6.970;2023-03-04T16:49:04;4.80;99.90
52203;DHT22;38173;52.850;6.970;2023-03-04T16:51:29;4.80;99.90
52203;DHT22;38173;52.850;6.970;2023-03-04T16:53:59;4.80;99.90
52203;DHT22;38173;52.850;6.970;2023-03-04T16:56:25;4.70;99.90
52203;DHT22;38173;52.850;6.970;2023-03-04T16:58:51;4.70;99.90
52203;DHT22;38173;52.850;6.970;2023-03-04T17:01:20;4.70;99.90
52203;DHT22;38173;52.850;6.970;2023-03-04T17:03:50;4.60;99.90
52203;DHT22;38173;52.850;6.970;2023-03-04T17:06:16;4.50;99.90
52203;DHT22;38173;52.850;6.970;2023-03-04T17:08:42;4.40;99.90
52203;DHT22;38173;52.850;6.970;2023-03-04T17:11:12;4.40;99.90
52203;DHT22;38173;52.850;6.970;2023-03-04T17:13:40;4.30;99.90
52203;DHT22;38173;52.850;6.970;2023-03-04T17:16:09;4.30;99.90
52203;DHT22;38173;52.850;6.970;2023-03-04T17:18:35;4.30;99.90
52203;DHT22;38173;52.850;6.970;2023-03-04T17:21:07;4.20;99.90
52203;DHT22;38173;52.850;6.970;2023-03-04T17:23:35;4.20;99.90